createdAt,value
2022-09-06T00:01:23.517Z,16.91
2022-09-06T00:03:50.964Z,16.94
2022-09-06T00:06:20.036Z,16.93
2022-09-06T00:08:48.181Z,16.95
2022-09-06T00:11:16.360Z,16.96
2022-09-06T00:13:43.912Z,16.97
2022-09-06T00:16:17.258Z,16.95
2022-09-06T00:18:44.704Z,16.95
2022-09-06T00:21:17.615Z,16.99
2022-09-06T00:23:44.436Z,16.96
2022-09-06T00:26:11.507Z,16.93
2022-09-06T00:28:39.207Z,16.91
2022-09-06T00:31:13.481Z,16.86
2022-09-06T00:33:40.852Z,16.85
2022-09-06T00:36:08.796Z,16.85
2022-09-06T00:38:35.790Z,16.72
2022-09-06T00:41:03.025Z,16.63
2022-09-06T00:43:29.812Z,16.65
2022-09-06T00:45:57.129Z,16.68
2022-09-06T00:48:24.675Z,16.70
2022-09-06T00:50:55.719Z,16.70
2022-09-06T00:53:23.569Z,16.67
2022-09-06T00:55:50.392Z,16.61
2022-09-06T00:58:17.177Z,16.44
2022-09-06T01:00:44.986Z,16.38
2022-09-06T01:03:12.893Z,16.40
2022-09-06T01:05:54.428Z,16.40
2022-09-06T01:08:53.037Z,16.42
2022-09-06T01:11:39.510Z,16.40
2022-09-06T01:14:15.178Z,16.39
2022-09-06T01:17:10.716Z,16.33
2022-09-06T01:20:10.206Z,16.17
2022-09-06T01:22:55.551Z,16.21
2022-09-06T01:25:42.425Z,16.19
2022-09-06T01:28:24.299Z,16.15
2022-09-06T01:31:13.363Z,16.11
2022-09-06T01:34:07.906Z,16.10
2022-09-06T01:37:09.319Z,16.08
2022-09-06T01:39:37.200Z,16.05
2022-09-06T01:42:10.330Z,16.03
2022-09-06T01:44:39.614Z,16.01
2022-09-06T01:47:39.913Z,15.99
2022-09-06T01:50:18.778Z,15.98
2022-09-06T01:52:57.705Z,15.95
2022-09-06T01:55:37.416Z,15.93
2022-09-06T01:58:49.891Z,15.86
2022-09-06T02:01:25.903Z,15.82
2022-09-06T02:04:09.560Z,15.79
2022-09-06T02:07:07.335Z,15.78
2022-09-06T02:09:41.209Z,15.71
2022-09-06T02:12:12.509Z,15.69
2022-09-06T02:14:58.035Z,15.66
2022-09-06T02:17:31.751Z,15.65
2022-09-06T02:20:16.040Z,15.61
2022-09-06T02:22:46.831Z,15.59
2022-09-06T02:25:21.468Z,15.60
2022-09-06T02:27:48.344Z,15.57
2022-09-06T02:30:15.466Z,15.53
2022-09-06T02:32:49.843Z,15.52
2022-09-06T02:35:17.429Z,15.51
2022-09-06T02:37:44.959Z,15.49
2022-09-06T02:40:12.516Z,15.47
2022-09-06T02:42:39.897Z,15.45
2022-09-06T02:45:07.029Z,15.43
2022-09-06T02:47:33.722Z,15.41
2022-09-06T02:50:00.954Z,15.36
2022-09-06T02:52:27.653Z,15.35
2022-09-06T02:54:54.342Z,15.34
2022-09-06T02:57:21.252Z,15.30
2022-09-06T02:59:47.958Z,15.26
2022-09-06T03:02:14.922Z,15.22
2022-09-06T03:04:41.691Z,15.17
2022-09-06T03:07:08.359Z,15.13
2022-09-06T03:09:35.298Z,15.12
2022-09-06T03:12:02.113Z,15.12
2022-09-06T03:14:28.817Z,15.10
2022-09-06T03:16:55.601Z,15.12
2022-09-06T03:19:22.561Z,15.07
2022-09-06T03:21:49.242Z,15.07
2022-09-06T03:24:15.921Z,15.07
2022-09-06T03:26:42.621Z,15.04
2022-09-06T03:29:09.275Z,15.02
2022-09-06T03:31:35.995Z,15.01
2022-09-06T03:34:02.681Z,14.98
2022-09-06T03:36:29.865Z,14.96
2022-09-06T03:38:56.573Z,14.96
2022-09-06T03:41:23.251Z,14.96
2022-09-06T03:43:49.949Z,14.93
2022-09-06T03:46:16.665Z,14.91
2022-09-06T03:48:43.449Z,14.89
2022-09-06T03:51:10.109Z,14.83
2022-09-06T03:53:36.785Z,14.74
2022-09-06T03:56:03.798Z,14.73
2022-09-06T03:58:32.118Z,14.71
2022-09-06T04:01:10.505Z,14.73
2022-09-06T04:03:38.539Z,14.71
2022-09-06T04:06:06.816Z,14.72
2022-09-06T04:08:34.637Z,14.71
2022-09-06T04:11:01.351Z,14.68
2022-09-06T04:13:29.818Z,14.68
2022-09-06T04:15:57.225Z,14.66
2022-09-06T04:18:24.521Z,14.64
2022-09-06T04:20:53.073Z,14.63
2022-09-06T04:23:20.858Z,14.56
2022-09-06T04:25:51.876Z,14.51
2022-09-06T04:28:19.629Z,14.49
2022-09-06T04:30:53.031Z,14.50
2022-09-06T04:33:20.676Z,14.52
2022-09-06T04:35:50.593Z,14.48
2022-09-06T04:38:17.350Z,14.45
2022-09-06T04:40:44.285Z,14.47
2022-09-06T04:43:11.068Z,14.44
2022-09-06T04:45:38.376Z,14.43
2022-09-06T04:48:05.173Z,14.44
2022-09-06T04:50:31.876Z,14.46
2022-09-06T04:52:58.622Z,14.46
2022-09-06T04:55:26.562Z,14.45
2022-09-06T04:57:53.376Z,14.47
2022-09-06T05:00:20.184Z,14.48
2022-09-06T05:02:46.854Z,14.49
2022-09-06T05:05:13.614Z,14.51
2022-09-06T05:07:40.293Z,14.53
2022-09-06T05:10:07.229Z,14.53
2022-09-06T05:12:33.910Z,14.49
2022-09-06T05:15:00.679Z,14.48
2022-09-06T05:17:27.392Z,14.52
2022-09-06T05:19:54.070Z,14.57
2022-09-06T05:22:20.803Z,14.58
2022-09-06T05:24:47.513Z,14.58
2022-09-06T05:27:14.456Z,14.62
2022-09-06T05:29:41.145Z,14.68
2022-09-06T05:32:08.033Z,14.71
2022-09-06T05:34:34.865Z,14.71
2022-09-06T05:37:01.593Z,14.74
2022-09-06T05:39:28.351Z,14.81
2022-09-06T05:41:55.094Z,14.95
2022-09-06T05:44:21.812Z,15.10
2022-09-06T05:46:48.561Z,15.39
2022-09-06T05:49:15.266Z,15.60
2022-09-06T05:51:42.087Z,15.83
2022-09-06T05:54:11.477Z,16.03
2022-09-06T05:56:38.205Z,16.27
2022-09-06T05:59:06.077Z,16.39
2022-09-06T06:01:32.887Z,16.53
2022-09-06T06:04:02.438Z,16.94
2022-09-06T06:06:32.214Z,17.29
2022-09-06T06:08:59.725Z,17.63
2022-09-06T06:11:27.805Z,17.91
2022-09-06T06:13:54.882Z,17.77
2022-09-06T06:16:22.942Z,17.71
2022-09-06T06:18:52.226Z,17.77
2022-09-06T06:21:28.224Z,17.86
2022-09-06T06:24:00.514Z,17.74
2022-09-06T06:26:28.919Z,17.77
2022-09-06T06:28:57.938Z,18.02
2022-09-06T06:31:25.162Z,18.41
2022-09-06T06:33:51.933Z,18.66
2022-09-06T06:36:21.990Z,19.01
2022-09-06T06:38:50.114Z,19.37
2022-09-06T06:41:19.808Z,19.62
2022-09-06T06:43:46.694Z,19.90
2022-09-06T06:46:15.557Z,20.16
2022-09-06T06:48:43.973Z,20.32
2022-09-06T06:51:13.211Z,20.53
2022-09-06T06:53:40.305Z,20.64
2022-09-06T06:56:27.631Z,20.80
2022-09-06T06:58:57.807Z,20.94
2022-09-06T07:01:26.464Z,21.10
2022-09-06T07:03:54.581Z,21.03
2022-09-06T07:09:09.361Z,21.32
2022-09-06T07:11:36.052Z,21.39
2022-09-06T07:14:02.725Z,21.40
2022-09-06T07:16:30.177Z,21.26
2022-09-06T07:18:56.966Z,21.25
2022-09-06T07:21:42.509Z,21.55
2022-09-06T07:24:09.479Z,21.91
2022-09-06T07:26:39.051Z,22.09
2022-09-06T07:29:07.240Z,22.21
2022-09-06T07:34:22.431Z,22.69
2022-09-06T07:36:52.816Z,22.58
2022-09-06T07:39:19.564Z,22.69
2022-09-06T07:41:46.293Z,22.70
2022-09-06T07:44:13.042Z,22.60
2022-09-06T07:46:39.832Z,22.63
2022-09-06T07:49:07.061Z,22.53
2022-09-06T07:51:33.818Z,22.78
2022-09-06T07:56:47.859Z,22.91
2022-09-06T07:59:14.696Z,22.95
2022-09-06T08:01:42.264Z,23.03
2022-09-06T08:04:08.994Z,23.34
2022-09-06T08:09:25.299Z,23.68
2022-09-06T08:11:52.952Z,23.77
2022-09-06T08:14:20.477Z,23.84
2022-09-06T08:16:47.539Z,24.12
2022-09-06T08:19:14.450Z,24.14
2022-09-06T08:21:41.401Z,24.21
2022-09-06T08:24:12.681Z,24.13
2022-09-06T08:26:40.749Z,24.00
2022-09-06T08:29:09.173Z,23.98
2022-09-06T08:31:39.220Z,23.89
2022-09-06T08:34:06.436Z,23.91
2022-09-06T08:36:33.543Z,24.11
2022-09-06T08:39:02.714Z,24.03
2022-09-06T08:41:51.273Z,23.80
2022-09-06T08:47:20.659Z,24.07
2022-09-06T08:50:06.654Z,24.15
2022-09-06T08:55:55.507Z,24.42
2022-09-06T08:58:36.180Z,24.28
2022-09-06T09:01:07.406Z,24.43
2022-09-06T09:03:37.393Z,24.12
2022-09-06T09:06:07.448Z,24.15
2022-09-06T09:08:59.277Z,24.48
2022-09-06T09:11:26.474Z,24.99
2022-09-06T09:14:08.796Z,25.12
2022-09-06T09:16:35.979Z,25.16
2022-09-06T09:19:05.097Z,24.91
2022-09-06T09:21:36.415Z,24.88
2022-09-06T09:24:08.884Z,24.76
2022-09-06T09:26:59.678Z,24.75
2022-09-06T09:29:29.455Z,24.75
2022-09-06T09:31:57.717Z,24.97
2022-09-06T09:34:34.925Z,25.07
2022-09-06T09:40:25.955Z,24.92
2022-09-06T09:42:57.019Z,25.20
2022-09-06T09:45:29.732Z,25.08
2022-09-06T09:47:56.932Z,25.29
2022-09-06T09:50:26.585Z,25.32
2022-09-06T09:52:53.603Z,25.41
2022-09-06T09:55:28.387Z,25.59
2022-09-06T09:57:55.308Z,25.91
2022-09-06T10:00:43.326Z,25.88
2022-09-06T10:03:27.280Z,25.79
2022-09-06T10:06:02.788Z,25.50
2022-09-06T10:08:32.913Z,25.27
2022-09-06T10:10:59.669Z,25.24
2022-09-06T10:13:29.700Z,25.49
2022-09-06T10:15:58.966Z,25.45
2022-09-06T10:18:43.834Z,25.42
2022-09-06T10:21:10.450Z,25.23
2022-09-06T10:26:39.191Z,25.29
2022-09-06T10:29:09.693Z,25.30
2022-09-06T10:31:39.477Z,25.30
2022-09-06T10:34:09.300Z,25.18
2022-09-06T10:36:39.026Z,25.21
2022-09-06T10:39:14.862Z,25.36
2022-09-06T10:41:54.587Z,25.30
2022-09-06T10:44:30.540Z,25.37
2022-09-06T10:47:18.286Z,25.30
2022-09-06T10:49:50.316Z,25.24
2022-09-06T10:52:34.816Z,24.98
2022-09-06T10:55:05.230Z,25.04
2022-09-06T11:00:47.459Z,25.13
2022-09-06T11:06:14.111Z,24.87
2022-09-06T11:08:51.262Z,24.93
2022-09-06T11:11:26.822Z,24.90
2022-09-06T11:13:53.494Z,25.03
2022-09-06T11:16:26.752Z,25.00
2022-09-06T11:19:03.324Z,24.89
2022-09-06T11:21:51.520Z,24.85
2022-09-06T11:24:33.164Z,25.07
2022-09-06T11:27:12.083Z,24.97
2022-09-06T11:29:45.279Z,24.79
2022-09-06T11:32:37.354Z,24.69
2022-09-06T11:35:10.101Z,24.69
2022-09-06T11:37:42.983Z,24.84
2022-09-06T11:40:28.382Z,24.91
2022-09-06T11:42:55.630Z,25.03
2022-09-06T11:45:45.966Z,25.06
2022-09-06T11:48:25.373Z,24.98
2022-09-06T11:50:55.043Z,25.09
2022-09-06T11:53:24.038Z,25.16
2022-09-06T11:55:52.073Z,24.97
2022-09-06T11:58:18.676Z,24.93
2022-09-06T12:00:47.008Z,24.83
2022-09-06T12:06:35.762Z,24.54
2022-09-06T12:09:23.131Z,24.48
2022-09-06T12:11:51.400Z,24.50
2022-09-06T12:14:42.684Z,24.51
2022-09-06T12:17:09.851Z,24.67
2022-09-06T12:20:09.647Z,24.68
2022-09-06T12:22:36.227Z,24.89
2022-09-06T12:25:16.640Z,24.89
2022-09-06T12:27:58.261Z,24.85
2022-09-06T12:30:37.594Z,24.91
2022-09-06T12:33:33.227Z,24.99
2022-09-06T12:36:18.100Z,24.99
2022-09-06T12:39:01.166Z,24.90
2022-09-06T12:41:30.954Z,24.71
2022-09-06T12:44:01.657Z,24.65
2022-09-06T12:46:30.302Z,24.75
2022-09-06T12:49:19.453Z,24.77
2022-09-06T12:51:46.454Z,24.81
2022-09-06T12:54:24.477Z,24.81
2022-09-06T12:56:52.310Z,24.74
2022-09-06T12:59:25.266Z,24.65
2022-09-06T13:01:56.313Z,24.52
2022-09-06T13:04:34.174Z,24.35
2022-09-06T13:07:03.934Z,24.20
2022-09-06T13:09:31.903Z,24.19
2022-09-06T13:12:10.762Z,24.14
2022-09-06T13:14:37.489Z,24.13
2022-09-06T13:17:04.479Z,24.11
2022-09-06T13:19:37.334Z,24.14
2022-09-06T13:22:07.709Z,24.10
2022-09-06T13:24:34.312Z,24.21
2022-09-06T13:27:01.475Z,24.28
2022-09-06T13:29:32.163Z,24.30
2022-09-06T13:32:02.384Z,24.37
2022-09-06T13:34:31.358Z,24.24
2022-09-06T13:37:09.012Z,24.14
2022-09-06T13:39:42.221Z,24.13
2022-09-06T13:42:30.333Z,24.14
2022-09-06T13:45:01.771Z,24.05
2022-09-06T13:47:29.914Z,24.13
2022-09-06T13:49:56.671Z,24.01
2022-09-06T13:52:23.604Z,23.94
2022-09-06T13:54:50.365Z,23.88
2022-09-06T13:57:22.208Z,23.84
2022-09-06T13:59:50.830Z,23.81
2022-09-06T14:02:19.910Z,23.79
2022-09-06T14:04:46.739Z,23.62
2022-09-06T14:07:13.672Z,23.64
2022-09-06T14:09:40.389Z,23.67
2022-09-06T14:12:31.342Z,23.65
2022-09-06T14:14:58.032Z,23.63
2022-09-06T14:17:24.775Z,23.61
2022-09-06T14:19:51.526Z,23.53
2022-09-06T14:22:18.263Z,23.42
2022-09-06T14:24:44.993Z,23.27
2022-09-06T14:27:11.863Z,23.24
2022-09-06T14:29:38.641Z,23.21
2022-09-06T14:32:05.474Z,23.19
2022-09-06T14:34:32.773Z,23.23
2022-09-06T14:36:59.564Z,23.32
2022-09-06T14:39:27.638Z,23.33
2022-09-06T14:41:54.427Z,23.33
2022-09-06T14:44:21.609Z,23.31
2022-09-06T14:46:49.202Z,23.27
2022-09-06T14:49:16.186Z,23.28
2022-09-06T14:51:43.492Z,23.29
2022-09-06T14:54:13.133Z,23.23
2022-09-06T14:56:43.787Z,23.32
2022-09-06T14:59:10.798Z,23.28
2022-09-06T15:01:39.020Z,23.29
2022-09-06T15:04:08.564Z,23.33
2022-09-06T15:06:37.039Z,23.40
2022-09-06T15:09:04.722Z,23.36
2022-09-06T15:11:41.888Z,23.36
2022-09-06T15:14:15.745Z,23.32
2022-09-06T15:16:43.279Z,23.27
2022-09-06T15:19:10.367Z,23.27
2022-09-06T15:21:37.482Z,23.25
2022-09-06T15:24:11.041Z,23.24
2022-09-06T15:26:39.101Z,23.22
2022-09-06T15:29:05.795Z,23.25
2022-09-06T15:31:36.179Z,23.29
2022-09-06T15:34:03.020Z,23.30
2022-09-06T15:36:30.070Z,23.29
2022-09-06T15:39:01.098Z,23.26
2022-09-06T15:41:30.967Z,23.25
2022-09-06T15:44:00.117Z,23.26
2022-09-06T15:46:54.005Z,23.28
2022-09-06T15:49:28.433Z,23.27
2022-09-06T15:51:58.360Z,23.28
2022-09-06T15:54:46.047Z,23.27
2022-09-06T15:57:16.482Z,23.25
2022-09-06T15:59:43.504Z,23.19
2022-09-06T16:02:10.365Z,23.15
2022-09-06T16:04:37.196Z,23.07
2022-09-06T16:07:04.449Z,23.00
2022-09-06T16:09:31.855Z,22.91
2022-09-06T16:11:58.624Z,22.81
2022-09-06T16:14:25.396Z,22.69
2022-09-06T16:16:54.958Z,22.60
2022-09-06T16:19:22.137Z,22.53
2022-09-06T16:21:48.944Z,22.49
2022-09-06T16:24:18.272Z,22.44
2022-09-06T16:26:49.067Z,22.39
2022-09-06T16:29:18.371Z,22.38
2022-09-06T16:31:45.697Z,22.35
2022-09-06T16:34:13.415Z,22.27
2022-09-06T16:36:41.096Z,22.19
2022-09-06T16:39:08.234Z,22.11
2022-09-06T16:41:43.106Z,22.08
2022-09-06T16:44:16.759Z,22.03
2022-09-06T16:46:47.012Z,21.96
2022-09-06T16:49:17.111Z,21.89
2022-09-06T16:51:44.838Z,21.86
2022-09-06T16:54:11.587Z,21.81
2022-09-06T16:56:39.128Z,21.76
2022-09-06T16:59:08.112Z,21.69
2022-09-06T17:01:36.432Z,21.61
2022-09-06T17:04:03.989Z,21.59
2022-09-06T17:06:31.625Z,21.50
2022-09-06T17:08:58.650Z,21.36
2022-09-06T17:11:26.647Z,21.29
2022-09-06T17:13:54.957Z,21.32
2022-09-06T17:16:41.123Z,21.27
2022-09-06T17:19:09.215Z,21.19
2022-09-06T17:21:37.196Z,21.14
2022-09-06T17:24:05.380Z,21.07
2022-09-06T17:26:37.361Z,21.05
2022-09-06T17:29:04.688Z,21.05
2022-09-06T17:31:31.891Z,21.06
2022-09-06T17:34:02.031Z,20.99
2022-09-06T17:36:31.805Z,20.91
2022-09-06T17:39:05.023Z,20.84
2022-09-06T17:41:40.244Z,20.75
2022-09-06T17:44:11.010Z,20.73
2022-09-06T17:46:47.599Z,20.68
2022-09-06T17:49:24.655Z,20.67
2022-09-06T17:51:51.691Z,20.68
2022-09-06T17:54:18.948Z,20.63
2022-09-06T17:56:45.725Z,20.52
2022-09-06T17:59:16.980Z,20.46
2022-09-06T18:01:45.977Z,20.46
2022-09-06T18:04:14.583Z,20.50
2022-09-06T18:06:43.557Z,20.38
2022-09-06T18:09:14.757Z,20.31
2022-09-06T18:11:45.675Z,20.18
2022-09-06T18:14:17.823Z,20.16
2022-09-06T18:16:49.361Z,20.13
2022-09-06T18:19:17.570Z,20.07
2022-09-06T18:21:45.056Z,19.97
2022-09-06T18:24:14.032Z,19.89
2022-09-06T18:26:41.644Z,19.85
2022-09-06T18:29:12.049Z,19.78
2022-09-06T18:31:39.997Z,19.69
2022-09-06T18:34:08.019Z,19.60
2022-09-06T18:36:35.334Z,19.58
2022-09-06T18:39:04.217Z,19.52
2022-09-06T18:41:50.949Z,19.48
2022-09-06T18:44:17.980Z,19.46
2022-09-06T18:46:44.875Z,19.40
2022-09-06T18:49:13.836Z,19.34
2022-09-06T18:51:41.214Z,19.35
2022-09-06T18:54:09.233Z,19.35
2022-09-06T18:56:36.174Z,19.35
2022-09-06T18:59:02.985Z,19.34
2022-09-06T19:01:30.577Z,19.30
2022-09-06T19:03:58.073Z,19.21
2022-09-06T19:06:26.201Z,19.14
2022-09-06T19:08:53.969Z,19.06
2022-09-06T19:11:21.991Z,18.96
2022-09-06T19:13:54.005Z,18.97
2022-09-06T19:16:22.509Z,19.04
2022-09-06T19:18:50.989Z,19.06
2022-09-06T19:21:22.270Z,19.09
2022-09-06T19:23:59.307Z,19.10
2022-09-06T19:26:29.288Z,19.04
2022-09-06T19:28:58.632Z,18.99
2022-09-06T19:31:27.744Z,18.95
2022-09-06T19:33:55.926Z,18.90
2022-09-06T19:36:23.951Z,18.84
2022-09-06T19:39:05.012Z,18.78
2022-09-06T19:41:38.214Z,18.83
2022-09-06T19:44:07.832Z,18.83
2022-09-06T19:46:35.234Z,18.83
2022-09-06T19:49:02.393Z,18.84
2022-09-06T19:51:29.665Z,18.88
2022-09-06T19:53:57.910Z,18.90
2022-09-06T19:56:27.071Z,18.92
2022-09-06T19:58:56.194Z,18.91
2022-09-06T20:01:25.190Z,18.86
2022-09-06T20:03:52.708Z,18.86
2022-09-06T20:06:19.755Z,18.83
2022-09-06T20:08:50.793Z,18.82
2022-09-06T20:11:18.503Z,18.79
2022-09-06T20:13:45.866Z,18.80
2022-09-06T20:16:13.195Z,18.81
2022-09-06T20:18:40.272Z,18.82
2022-09-06T20:21:07.190Z,18.83
2022-09-06T20:23:35.061Z,18.77
2022-09-06T20:26:10.556Z,18.81
2022-09-06T20:28:37.795Z,18.80
2022-09-06T20:31:07.393Z,18.75
2022-09-06T20:33:35.085Z,18.74
2022-09-06T20:36:07.683Z,18.76
2022-09-06T20:38:38.822Z,18.73
2022-09-06T20:41:20.395Z,18.69
2022-09-06T20:43:52.157Z,18.64
2022-09-06T20:46:20.386Z,18.61
2022-09-06T20:48:47.785Z,18.62
2022-09-06T20:51:19.501Z,18.67
2022-09-06T20:53:53.421Z,18.64
2022-09-06T20:56:26.157Z,18.63
2022-09-06T20:58:55.470Z,18.59
2022-09-06T21:01:28.121Z,18.56
2022-09-06T21:03:58.552Z,18.54
2022-09-06T21:06:27.225Z,18.49
2022-09-06T21:08:54.418Z,18.41
2022-09-06T21:11:21.592Z,18.40
2022-09-06T21:13:51.296Z,18.41
2022-09-06T21:16:23.992Z,18.40
2022-09-06T21:18:56.185Z,18.40
2022-09-06T21:21:24.865Z,18.38
2022-09-06T21:23:52.174Z,18.37
2022-09-06T21:26:19.327Z,18.35
2022-09-06T21:28:47.794Z,18.33
2022-09-06T21:31:22.299Z,18.28
2022-09-06T21:33:55.090Z,18.20
2022-09-06T21:36:24.442Z,18.14
2022-09-06T21:38:55.618Z,18.13
2022-09-06T21:41:23.415Z,18.13
2022-09-06T21:43:54.984Z,18.14
2022-09-06T21:46:24.712Z,18.14
2022-09-06T21:48:54.206Z,18.11
2022-09-06T21:51:23.789Z,18.13
2022-09-06T21:53:51.958Z,18.13
2022-09-06T21:56:23.897Z,18.10
2022-09-06T21:58:52.299Z,18.06
2022-09-06T22:01:19.655Z,18.04
2022-09-06T22:03:46.473Z,17.98
2022-09-06T22:06:19.386Z,17.97
2022-09-06T22:08:47.273Z,17.96
2022-09-06T22:11:26.048Z,17.95
2022-09-06T22:13:53.660Z,17.92
2022-09-06T22:16:45.249Z,17.71
2022-09-06T22:19:12.053Z,17.65
2022-09-06T22:21:38.940Z,17.66
2022-09-06T22:24:08.626Z,17.64
2022-09-06T22:26:37.097Z,17.56
2022-09-06T22:29:06.498Z,17.55
2022-09-06T22:31:34.348Z,17.54
2022-09-06T22:34:01.485Z,17.53
2022-09-06T22:36:28.777Z,17.53
2022-09-06T22:38:59.083Z,17.48
2022-09-06T22:41:28.684Z,17.44
2022-09-06T22:43:55.687Z,17.42
2022-09-06T22:46:23.091Z,17.40
2022-09-06T22:48:49.922Z,17.43
2022-09-06T22:51:16.875Z,17.42
2022-09-06T22:53:44.028Z,17.42
2022-09-06T22:56:11.057Z,17.40
2022-09-06T22:58:38.033Z,17.44
2022-09-06T23:01:06.989Z,17.45
2022-09-06T23:03:35.389Z,17.47
2022-09-06T23:06:03.204Z,17.30
2022-09-06T23:08:31.318Z,17.23
2022-09-06T23:10:58.738Z,17.24
2022-09-06T23:13:25.468Z,17.21
2022-09-06T23:15:52.226Z,17.17
2022-09-06T23:18:19.286Z,17.10
2022-09-06T23:20:46.020Z,17.08
2022-09-06T23:23:12.768Z,17.08
2022-09-06T23:25:39.527Z,17.04
2022-09-06T23:28:07.182Z,17.06
2022-09-06T23:30:38.466Z,17.08
2022-09-06T23:33:05.371Z,16.97
2022-09-06T23:35:32.125Z,16.96
2022-09-06T23:37:58.878Z,16.99
2022-09-06T23:40:25.635Z,17.00
2022-09-06T23:42:52.430Z,16.99
2022-09-06T23:45:19.171Z,16.94
2022-09-06T23:47:46.015Z,16.86
2022-09-06T23:50:12.775Z,16.76
2022-09-06T23:52:39.551Z,16.78
2022-09-06T23:55:06.770Z,16.82
2022-09-06T23:57:33.476Z,16.84
